sensor_id;sensor_type;location;lat;lon;timestamp;P1;durP1;ratioP1;P2;durP2;ratioP2
73487;SDS011;61721;42.206;25.320;2023-05-07T00:00:09;6.28;;;3.47;;
73487;SDS011;61721;42.206;25.320;2023-05-07T00:02:47;6.82;;;3.42;;
73487;SDS011;61721;42.206;25.320;2023-05-07T00:08:00;6.00;;;3.42;;
73487;SDS011;61721;42.206;25.320;2023-05-07T00:10:36;5.72;;;2.63;;
73487;SDS011;61721;42.206;25.320;2023-05-07T00:13:12;5.93;;;2.92;;
73487;SDS011;61721;42.206;25.320;2023-05-07T00:15:50;5.93;;;3.30;;
73487;SDS011;61721;42.206;25.320;2023-05-07T00:18:27;7.35;;;3.35;;
73487;SDS011;61721;42.206;25.320;2023-05-07T00:21:03;5.10;;;3.10;;
73487;SDS011;61721;42.206;25.320;2023-05-07T00:23:39;7.05;;;3.45;;
73487;SDS011;61721;42.206;25.320;2023-05-07T00:26:16;6.32;;;3.33;;
73487;SDS011;61721;42.206;25.320;2023-05-07T00:28:52;8.50;;;3.22;;
73487;SDS011;61721;42.206;25.320;2023-05-07T00:31:30;6.07;;;3.17;;
73487;SDS011;61721;42.206;25.320;2023-05-07T00:34:07;4.68;;;2.85;;
73487;SDS011;61721;42.206;25.320;2023-05-07T00:36:43;5.38;;;3.00;;
73487;SDS011;61721;42.206;25.320;2023-05-07T00:39:19;5.28;;;2.97;;
73487;SDS011;61721;42.206;25.320;2023-05-07T00:41:55;5.30;;;3.15;;
73487;SDS011;61721;42.206;25.320;2023-05-07T00:44:32;8.05;;;2.92;;
73487;SDS011;61721;42.206;25.320;2023-05-07T00:47:11;8.35;;;3.55;;
73487;SDS011;61721;42.206;25.320;2023-05-07T00:49:57;6.22;;;3.08;;
73487;SDS011;61721;42.206;25.320;2023-05-07T00:52:33;5.57;;;3.15;;
73487;SDS011;61721;42.206;25.320;2023-05-07T00:55:09;7.60;;;3.60;;
73487;SDS011;61721;42.206;25.320;2023-05-07T00:57:54;7.90;;;3.42;;
73487;SDS011;61721;42.206;25.320;2023-05-07T01:00:30;7.47;;;3.30;;
73487;SDS011;61721;42.206;25.320;2023-05-07T01:03:08;7.13;;;3.30;;
73487;SDS011;61721;42.206;25.320;2023-05-07T01:05:45;5.80;;;3.25;;
73487;SDS011;61721;42.206;25.320;2023-05-07T01:08:23;7.38;;;2.85;;
73487;SDS011;61721;42.206;25.320;2023-05-07T01:11:01;6.05;;;3.50;;
73487;SDS011;61721;42.206;25.320;2023-05-07T01:13:37;6.38;;;3.35;;
73487;SDS011;61721;42.206;25.320;2023-05-07T01:16:25;6.32;;;3.30;;
73487;SDS011;61721;42.206;25.320;2023-05-07T01:19:10;7.20;;;3.45;;
73487;SDS011;61721;42.206;25.320;2023-05-07T01:21:48;5.32;;;3.25;;
73487;SDS011;61721;42.206;25.320;2023-05-07T01:24:28;6.45;;;3.67;;
73487;SDS011;61721;42.206;25.320;2023-05-07T01:27:05;6.25;;;3.13;;
73487;SDS011;61721;42.206;25.320;2023-05-07T01:29:41;7.53;;;3.42;;
73487;SDS011;61721;42.206;25.320;2023-05-07T01:32:17;7.88;;;3.45;;
73487;SDS011;61721;42.206;25.320;2023-05-07T01:34:56;6.00;;;3.08;;
73487;SDS011;61721;42.206;25.320;2023-05-07T01:37:34;7.07;;;3.28;;
73487;SDS011;61721;42.206;25.320;2023-05-07T01:40:14;7.00;;;3.50;;
73487;SDS011;61721;42.206;25.320;2023-05-07T01:42:53;6.70;;;3.70;;
73487;SDS011;61721;42.206;25.320;2023-05-07T01:45:30;5.90;;;3.50;;
73487;SDS011;61721;42.206;25.320;2023-05-07T01:48:09;6.72;;;3.72;;
73487;SDS011;61721;42.206;25.320;2023-05-07T01:53:44;6.72;;;3.15;;
73487;SDS011;61721;42.206;25.320;2023-05-07T01:56:26;7.03;;;3.35;;
73487;SDS011;61721;42.206;25.320;2023-05-07T01:59:02;5.97;;;3.42;;
73487;SDS011;61721;42.206;25.320;2023-05-07T02:01:38;6.13;;;3.03;;
73487;SDS011;61721;42.206;25.320;2023-05-07T02:04:14;6.05;;;3.65;;
73487;SDS011;61721;42.206;25.320;2023-05-07T02:06:50;9.98;;;3.60;;
73487;SDS011;61721;42.206;25.320;2023-05-07T02:09:26;7.60;;;3.53;;
73487;SDS011;61721;42.206;25.320;2023-05-07T02:12:04;7.70;;;3.17;;
73487;SDS011;61721;42.206;25.320;2023-05-07T02:14:42;6.38;;;3.08;;
73487;SDS011;61721;42.206;25.320;2023-05-07T02:17:24;5.25;;;2.92;;
73487;SDS011;61721;42.206;25.320;2023-05-07T02:20:03;7.78;;;3.60;;
73487;SDS011;61721;42.206;25.320;2023-05-07T02:22:45;6.28;;;3.22;;
73487;SDS011;61721;42.206;25.320;2023-05-07T02:25:21;4.93;;;3.17;;
73487;SDS011;61721;42.206;25.320;2023-05-07T02:27:59;7.65;;;3.47;;
73487;SDS011;61721;42.206;25.320;2023-05-07T02:30:38;8.95;;;3.45;;
73487;SDS011;61721;42.206;25.320;2023-05-07T02:33:15;7.43;;;3.38;;
73487;SDS011;61721;42.206;25.320;2023-05-07T02:35:51;6.32;;;3.10;;
73487;SDS011;61721;42.206;25.320;2023-05-07T02:38:27;7.35;;;3.10;;
73487;SDS011;61721;42.206;25.320;2023-05-07T02:41:03;5.90;;;2.92;;
73487;SDS011;61721;42.206;25.320;2023-05-07T02:43:41;6.43;;;3.08;;
73487;SDS011;61721;42.206;25.320;2023-05-07T02:46:18;6.57;;;3.10;;
73487;SDS011;61721;42.206;25.320;2023-05-07T02:48:54;5.75;;;3.40;;
73487;SDS011;61721;42.206;25.320;2023-05-07T02:51:31;5.53;;;3.20;;
73487;SDS011;61721;42.206;25.320;2023-05-07T02:54:07;9.50;;;3.30;;
73487;SDS011;61721;42.206;25.320;2023-05-07T02:56:45;8.25;;;3.08;;
73487;SDS011;61721;42.206;25.320;2023-05-07T02:59:23;8.23;;;3.83;;
73487;SDS011;61721;42.206;25.320;2023-05-07T03:02:07;5.80;;;3.30;;
73487;SDS011;61721;42.206;25.320;2023-05-07T03:04:43;5.93;;;3.13;;
73487;SDS011;61721;42.206;25.320;2023-05-07T03:07:19;6.07;;;3.60;;
73487;SDS011;61721;42.206;25.320;2023-05-07T03:09:55;5.32;;;3.15;;
73487;SDS011;61721;42.206;25.320;2023-05-07T03:15:51;6.15;;;3.30;;
73487;SDS011;61721;42.206;25.320;2023-05-07T03:18:28;8.15;;;3.58;;
73487;SDS011;61721;42.206;25.320;2023-05-07T03:21:04;6.75;;;3.17;;
73487;SDS011;61721;42.206;25.320;2023-05-07T03:23:41;5.85;;;3.25;;
73487;SDS011;61721;42.206;25.320;2023-05-07T03:26:17;5.75;;;2.85;;
73487;SDS011;61721;42.206;25.320;2023-05-07T03:28:53;7.68;;;3.40;;
73487;SDS011;61721;42.206;25.320;2023-05-07T03:31:33;6.28;;;3.42;;
73487;SDS011;61721;42.206;25.320;2023-05-07T03:34:10;6.03;;;3.40;;
73487;SDS011;61721;42.206;25.320;2023-05-07T03:36:46;5.80;;;2.90;;
73487;SDS011;61721;42.206;25.320;2023-05-07T03:39:22;6.72;;;3.30;;
73487;SDS011;61721;42.206;25.320;2023-05-07T03:41:58;6.18;;;3.22;;
73487;SDS011;61721;42.206;25.320;2023-05-07T03:44:34;6.97;;;3.28;;
73487;SDS011;61721;42.206;25.320;2023-05-07T03:47:12;6.55;;;3.60;;
73487;SDS011;61721;42.206;25.320;2023-05-07T03:49:54;5.63;;;3.28;;
73487;SDS011;61721;42.206;25.320;2023-05-07T03:52:32;7.70;;;3.40;;
73487;SDS011;61721;42.206;25.320;2023-05-07T03:58:05;8.18;;;3.60;;
73487;SDS011;61721;42.206;25.320;2023-05-07T04:00:41;6.15;;;3.67;;
73487;SDS011;61721;42.206;25.320;2023-05-07T04:03:19;6.75;;;3.20;;
73487;SDS011;61721;42.206;25.320;2023-05-07T04:05:56;7.63;;;3.47;;
73487;SDS011;61721;42.206;25.320;2023-05-07T04:08:32;10.40;;;3.70;;
73487;SDS011;61721;42.206;25.320;2023-05-07T04:11:08;6.65;;;3.83;;
73487;SDS011;61721;42.206;25.320;2023-05-07T04:13:45;7.47;;;3.72;;
73487;SDS011;61721;42.206;25.320;2023-05-07T04:16:21;6.13;;;3.20;;
73487;SDS011;61721;42.206;25.320;2023-05-07T04:18:59;9.77;;;5.82;;
73487;SDS011;61721;42.206;25.320;2023-05-07T04:21:36;11.55;;;4.57;;
73487;SDS011;61721;42.206;25.320;2023-05-07T04:24:12;9.07;;;5.78;;
73487;SDS011;61721;42.206;25.320;2023-05-07T04:26:48;9.70;;;5.85;;
73487;SDS011;61721;42.206;25.320;2023-05-07T04:29:25;12.27;;;7.80;;
73487;SDS011;61721;42.206;25.320;2023-05-07T04:32:01;9.85;;;4.90;;
73487;SDS011;61721;42.206;25.320;2023-05-07T04:34:40;10.18;;;5.85;;
73487;SDS011;61721;42.206;25.320;2023-05-07T04:37:17;8.65;;;4.55;;
73487;SDS011;61721;42.206;25.320;2023-05-07T04:39:53;8.52;;;4.00;;
73487;SDS011;61721;42.206;25.320;2023-05-07T04:42:29;8.85;;;3.80;;
73487;SDS011;61721;42.206;25.320;2023-05-07T04:45:05;7.03;;;3.60;;
73487;SDS011;61721;42.206;25.320;2023-05-07T04:47:42;6.80;;;3.70;;
73487;SDS011;61721;42.206;25.320;2023-05-07T04:50:20;9.55;;;3.75;;
73487;SDS011;61721;42.206;25.320;2023-05-07T04:52:58;6.93;;;3.60;;
73487;SDS011;61721;42.206;25.320;2023-05-07T04:55:35;5.57;;;3.47;;
73487;SDS011;61721;42.206;25.320;2023-05-07T04:58:11;5.80;;;3.58;;
73487;SDS011;61721;42.206;25.320;2023-05-07T05:00:54;5.97;;;2.92;;
73487;SDS011;61721;42.206;25.320;2023-05-07T05:03:30;6.05;;;3.15;;
73487;SDS011;61721;42.206;25.320;2023-05-07T05:09:24;9.60;;;3.67;;
73487;SDS011;61721;42.206;25.320;2023-05-07T05:12:01;10.80;;;3.30;;
73487;SDS011;61721;42.206;25.320;2023-05-07T05:14:39;5.15;;;3.10;;
73487;SDS011;61721;42.206;25.320;2023-05-07T05:17:15;6.13;;;3.58;;
73487;SDS011;61721;42.206;25.320;2023-05-07T05:19:52;5.25;;;3.45;;
73487;SDS011;61721;42.206;25.320;2023-05-07T05:22:28;5.88;;;3.40;;
73487;SDS011;61721;42.206;25.320;2023-05-07T05:25:07;6.80;;;3.50;;
73487;SDS011;61721;42.206;25.320;2023-05-07T05:27:43;7.80;;;3.47;;
73487;SDS011;61721;42.206;25.320;2023-05-07T05:30:19;6.05;;;3.22;;
73487;SDS011;61721;42.206;25.320;2023-05-07T05:32:55;7.53;;;3.40;;
73487;SDS011;61721;42.206;25.320;2023-05-07T05:35:33;6.18;;;3.45;;
73487;SDS011;61721;42.206;25.320;2023-05-07T05:41:04;8.52;;;3.70;;
73487;SDS011;61721;42.206;25.320;2023-05-07T05:43:40;7.72;;;3.22;;
73487;SDS011;61721;42.206;25.320;2023-05-07T05:48:53;6.85;;;3.55;;
73487;SDS011;61721;42.206;25.320;2023-05-07T05:54:14;6.00;;;2.75;;
73487;SDS011;61721;42.206;25.320;2023-05-07T05:56:53;5.90;;;2.83;;
73487;SDS011;61721;42.206;25.320;2023-05-07T06:02:41;5.88;;;2.75;;
73487;SDS011;61721;42.206;25.320;2023-05-07T06:05:24;7.30;;;3.03;;
73487;SDS011;61721;42.206;25.320;2023-05-07T06:10:53;7.20;;;2.60;;
73487;SDS011;61721;42.206;25.320;2023-05-07T06:13:29;5.93;;;2.63;;
73487;SDS011;61721;42.206;25.320;2023-05-07T06:16:06;4.25;;;2.30;;
73487;SDS011;61721;42.206;25.320;2023-05-07T06:18:45;5.38;;;3.08;;
73487;SDS011;61721;42.206;25.320;2023-05-07T06:21:21;5.22;;;2.75;;
73487;SDS011;61721;42.206;25.320;2023-05-07T06:23:57;7.65;;;3.17;;
73487;SDS011;61721;42.206;25.320;2023-05-07T06:26:35;5.88;;;2.40;;
73487;SDS011;61721;42.206;25.320;2023-05-07T06:29:11;6.63;;;3.08;;
73487;SDS011;61721;42.206;25.320;2023-05-07T06:31:47;5.85;;;2.67;;
73487;SDS011;61721;42.206;25.320;2023-05-07T06:34:28;7.82;;;2.47;;
73487;SDS011;61721;42.206;25.320;2023-05-07T06:37:05;6.72;;;2.50;;
73487;SDS011;61721;42.206;25.320;2023-05-07T06:39:41;6.13;;;2.92;;
73487;SDS011;61721;42.206;25.320;2023-05-07T06:47:32;6.63;;;2.60;;
73487;SDS011;61721;42.206;25.320;2023-05-07T06:50:10;8.77;;;2.58;;
73487;SDS011;61721;42.206;25.320;2023-05-07T06:52:48;5.18;;;2.90;;
73487;SDS011;61721;42.206;25.320;2023-05-07T06:55:24;8.35;;;3.08;;
73487;SDS011;61721;42.206;25.320;2023-05-07T06:58:01;5.20;;;2.42;;
73487;SDS011;61721;42.206;25.320;2023-05-07T07:00:37;6.43;;;2.83;;
73487;SDS011;61721;42.206;25.320;2023-05-07T07:06:01;7.40;;;2.90;;
73487;SDS011;61721;42.206;25.320;2023-05-07T07:08:37;4.65;;;2.30;;
73487;SDS011;61721;42.206;25.320;2023-05-07T07:11:14;5.78;;;2.78;;
73487;SDS011;61721;42.206;25.320;2023-05-07T07:13:52;6.88;;;2.95;;
73487;SDS011;61721;42.206;25.320;2023-05-07T07:16:28;5.30;;;2.33;;
73487;SDS011;61721;42.206;25.320;2023-05-07T07:19:05;5.72;;;2.45;;
73487;SDS011;61721;42.206;25.320;2023-05-07T07:21:45;4.53;;;2.45;;
73487;SDS011;61721;42.206;25.320;2023-05-07T07:24:22;10.43;;;3.28;;
73487;SDS011;61721;42.206;25.320;2023-05-07T07:26:57;8.07;;;2.85;;
73487;SDS011;61721;42.206;25.320;2023-05-07T07:29:33;4.55;;;2.13;;
73487;SDS011;61721;42.206;25.320;2023-05-07T07:32:09;6.68;;;2.42;;
73487;SDS011;61721;42.206;25.320;2023-05-07T07:34:45;11.95;;;2.65;;
73487;SDS011;61721;42.206;25.320;2023-05-07T07:37:24;4.30;;;2.55;;
73487;SDS011;61721;42.206;25.320;2023-05-07T07:40:01;4.78;;;2.90;;
73487;SDS011;61721;42.206;25.320;2023-05-07T07:42:36;5.50;;;2.88;;
73487;SDS011;61721;42.206;25.320;2023-05-07T07:47:47;7.07;;;2.70;;
73487;SDS011;61721;42.206;25.320;2023-05-07T07:53:04;11.00;;;2.15;;
73487;SDS011;61721;42.206;25.320;2023-05-07T07:55:40;5.15;;;2.42;;
73487;SDS011;61721;42.206;25.320;2023-05-07T07:58:16;5.88;;;2.40;;
73487;SDS011;61721;42.206;25.320;2023-05-07T08:00:53;4.40;;;1.80;;
73487;SDS011;61721;42.206;25.320;2023-05-07T08:03:30;8.68;;;1.73;;
73487;SDS011;61721;42.206;25.320;2023-05-07T08:06:13;3.25;;;1.70;;
73487;SDS011;61721;42.206;25.320;2023-05-07T08:08:52;5.20;;;1.50;;
73487;SDS011;61721;42.206;25.320;2023-05-07T08:11:28;4.68;;;1.90;;
73487;SDS011;61721;42.206;25.320;2023-05-07T08:16:41;4.65;;;1.45;;
73487;SDS011;61721;42.206;25.320;2023-05-07T08:21:53;3.42;;;1.52;;
73487;SDS011;61721;42.206;25.320;2023-05-07T08:24:32;4.28;;;1.80;;
73487;SDS011;61721;42.206;25.320;2023-05-07T08:27:08;3.97;;;1.75;;
73487;SDS011;61721;42.206;25.320;2023-05-07T08:29:44;4.25;;;1.60;;
73487;SDS011;61721;42.206;25.320;2023-05-07T08:32:21;6.88;;;1.73;;
73487;SDS011;61721;42.206;25.320;2023-05-07T08:37:32;4.20;;;1.73;;
73487;SDS011;61721;42.206;25.320;2023-05-07T08:42:48;5.90;;;1.60;;
73487;SDS011;61721;42.206;25.320;2023-05-07T08:45:25;4.28;;;1.60;;
73487;SDS011;61721;42.206;25.320;2023-05-07T08:48:03;5.22;;;1.60;;
73487;SDS011;61721;42.206;25.320;2023-05-07T08:50:44;3.40;;;1.30;;
73487;SDS011;61721;42.206;25.320;2023-05-07T08:56:11;4.80;;;1.60;;
73487;SDS011;61721;42.206;25.320;2023-05-07T08:58:47;4.20;;;1.42;;
73487;SDS011;61721;42.206;25.320;2023-05-07T09:01:27;4.65;;;1.90;;
73487;SDS011;61721;42.206;25.320;2023-05-07T09:06:46;7.22;;;1.70;;
73487;SDS011;61721;42.206;25.320;2023-05-07T09:09:23;4.15;;;1.42;;
73487;SDS011;61721;42.206;25.320;2023-05-07T09:12:02;3.53;;;1.45;;
73487;SDS011;61721;42.206;25.320;2023-05-07T09:14:39;4.28;;;1.48;;
73487;SDS011;61721;42.206;25.320;2023-05-07T09:17:15;3.42;;;1.33;;
73487;SDS011;61721;42.206;25.320;2023-05-07T09:19:52;3.78;;;1.45;;
73487;SDS011;61721;42.206;25.320;2023-05-07T09:22:29;4.63;;;1.50;;
73487;SDS011;61721;42.206;25.320;2023-05-07T09:25:08;3.35;;;1.50;;
73487;SDS011;61721;42.206;25.320;2023-05-07T09:27:59;3.85;;;1.30;;
73487;SDS011;61721;42.206;25.320;2023-05-07T09:30:36;4.82;;;1.30;;
73487;SDS011;61721;42.206;25.320;2023-05-07T09:33:11;2.88;;;1.48;;
73487;SDS011;61721;42.206;25.320;2023-05-07T09:35:50;3.28;;;1.40;;
73487;SDS011;61721;42.206;25.320;2023-05-07T09:38:26;3.50;;;1.25;;
73487;SDS011;61721;42.206;25.320;2023-05-07T09:41:03;2.75;;;1.40;;
73487;SDS011;61721;42.206;25.320;2023-05-07T09:43:42;3.75;;;1.33;;
73487;SDS011;61721;42.206;25.320;2023-05-07T09:46:18;4.82;;;1.85;;
73487;SDS011;61721;42.206;25.320;2023-05-07T09:49:01;5.70;;;1.40;;
73487;SDS011;61721;42.206;25.320;2023-05-07T09:51:39;4.45;;;1.33;;
73487;SDS011;61721;42.206;25.320;2023-05-07T09:54:20;5.30;;;1.40;;
73487;SDS011;61721;42.206;25.320;2023-05-07T09:56:58;4.72;;;1.80;;
73487;SDS011;61721;42.206;25.320;2023-05-07T09:59:40;4.65;;;1.20;;
73487;SDS011;61721;42.206;25.320;2023-05-07T10:02:18;3.63;;;1.40;;
73487;SDS011;61721;42.206;25.320;2023-05-07T10:04:56;4.65;;;1.38;;
73487;SDS011;61721;42.206;25.320;2023-05-07T10:07:40;5.10;;;1.48;;
73487;SDS011;61721;42.206;25.320;2023-05-07T10:12:53;3.20;;;1.40;;
73487;SDS011;61721;42.206;25.320;2023-05-07T10:15:32;4.68;;;1.42;;
73487;SDS011;61721;42.206;25.320;2023-05-07T10:18:10;3.00;;;1.52;;
73487;SDS011;61721;42.206;25.320;2023-05-07T10:20:47;5.63;;;1.50;;
73487;SDS011;61721;42.206;25.320;2023-05-07T10:23:27;4.45;;;1.50;;
73487;SDS011;61721;42.206;25.320;2023-05-07T10:26:04;3.35;;;1.58;;
73487;SDS011;61721;42.206;25.320;2023-05-07T10:28:43;3.92;;;1.65;;
73487;SDS011;61721;42.206;25.320;2023-05-07T10:31:29;4.43;;;1.88;;
73487;SDS011;61721;42.206;25.320;2023-05-07T10:34:26;4.25;;;1.50;;
73487;SDS011;61721;42.206;25.320;2023-05-07T10:37:07;6.13;;;1.45;;
73487;SDS011;61721;42.206;25.320;2023-05-07T10:39:45;4.95;;;1.70;;
73487;SDS011;61721;42.206;25.320;2023-05-07T10:50:47;3.65;;;1.52;;
73487;SDS011;61721;42.206;25.320;2023-05-07T11:02:13;4.78;;;1.40;;
73487;SDS011;61721;42.206;25.320;2023-05-07T11:08:04;3.67;;;1.55;;
73487;SDS011;61721;42.206;25.320;2023-05-07T11:10:51;3.78;;;1.30;;
73487;SDS011;61721;42.206;25.320;2023-05-07T11:13:41;5.03;;;1.40;;
73487;SDS011;61721;42.206;25.320;2023-05-07T11:16:19;6.05;;;1.30;;
73487;SDS011;61721;42.206;25.320;2023-05-07T11:18:56;4.15;;;1.33;;
73487;SDS011;61721;42.206;25.320;2023-05-07T11:24:10;3.63;;;1.30;;
73487;SDS011;61721;42.206;25.320;2023-05-07T11:26:48;3.50;;;1.30;;
73487;SDS011;61721;42.206;25.320;2023-05-07T11:29:26;3.05;;;1.42;;
73487;SDS011;61721;42.206;25.320;2023-05-07T11:32:09;4.78;;;1.50;;
73487;SDS011;61721;42.206;25.320;2023-05-07T11:34:46;4.97;;;1.52;;
73487;SDS011;61721;42.206;25.320;2023-05-07T11:37:23;4.57;;;1.20;;
73487;SDS011;61721;42.206;25.320;2023-05-07T11:40:10;4.65;;;1.60;;
73487;SDS011;61721;42.206;25.320;2023-05-07T11:42:48;3.88;;;1.27;;
73487;SDS011;61721;42.206;25.320;2023-05-07T11:45:24;3.40;;;1.30;;
73487;SDS011;61721;42.206;25.320;2023-05-07T11:47:59;4.45;;;1.20;;
73487;SDS011;61721;42.206;25.320;2023-05-07T11:50:39;3.10;;;1.25;;
73487;SDS011;61721;42.206;25.320;2023-05-07T11:53:26;3.60;;;1.40;;
73487;SDS011;61721;42.206;25.320;2023-05-07T11:56:09;2.90;;;1.20;;
73487;SDS011;61721;42.206;25.320;2023-05-07T11:58:47;3.58;;;1.25;;
73487;SDS011;61721;42.206;25.320;2023-05-07T12:01:23;3.85;;;1.30;;
73487;SDS011;61721;42.206;25.320;2023-05-07T12:06:44;9.18;;;1.40;;
73487;SDS011;61721;42.206;25.320;2023-05-07T12:09:19;3.63;;;1.33;;
73487;SDS011;61721;42.206;25.320;2023-05-07T12:15:05;4.07;;;1.23;;
73487;SDS011;61721;42.206;25.320;2023-05-07T12:17:42;2.85;;;1.35;;
73487;SDS011;61721;42.206;25.320;2023-05-07T12:20:21;2.63;;;1.20;;
73487;SDS011;61721;42.206;25.320;2023-05-07T12:22:59;3.17;;;1.13;;
73487;SDS011;61721;42.206;25.320;2023-05-07T12:25:37;3.85;;;1.50;;
73487;SDS011;61721;42.206;25.320;2023-05-07T12:28:18;3.15;;;1.20;;
73487;SDS011;61721;42.206;25.320;2023-05-07T12:30:57;2.92;;;1.50;;
73487;SDS011;61721;42.206;25.320;2023-05-07T12:33:35;4.88;;;1.40;;
73487;SDS011;61721;42.206;25.320;2023-05-07T12:36:12;5.00;;;1.27;;
73487;SDS011;61721;42.206;25.320;2023-05-07T12:38:49;5.13;;;1.20;;
73487;SDS011;61721;42.206;25.320;2023-05-07T12:41:25;4.53;;;1.38;;
73487;SDS011;61721;42.206;25.320;2023-05-07T12:44:00;2.88;;;1.38;;
73487;SDS011;61721;42.206;25.320;2023-05-07T12:46:42;2.78;;;1.20;;
73487;SDS011;61721;42.206;25.320;2023-05-07T12:49:19;3.15;;;1.10;;
73487;SDS011;61721;42.206;25.320;2023-05-07T12:51:54;4.70;;;1.30;;
73487;SDS011;61721;42.206;25.320;2023-05-07T12:54:32;3.63;;;1.40;;
73487;SDS011;61721;42.206;25.320;2023-05-07T12:57:10;4.32;;;1.33;;
73487;SDS011;61721;42.206;25.320;2023-05-07T13:02:31;3.50;;;1.23;;
73487;SDS011;61721;42.206;25.320;2023-05-07T13:05:08;3.10;;;1.30;;
73487;SDS011;61721;42.206;25.320;2023-05-07T13:07:52;3.65;;;1.15;;
73487;SDS011;61721;42.206;25.320;2023-05-07T13:10:29;4.43;;;1.30;;
73487;SDS011;61721;42.206;25.320;2023-05-07T13:13:05;3.78;;;1.20;;
73487;SDS011;61721;42.206;25.320;2023-05-07T13:15:41;4.95;;;1.38;;
73487;SDS011;61721;42.206;25.320;2023-05-07T13:18:20;3.35;;;0.98;;
73487;SDS011;61721;42.206;25.320;2023-05-07T13:20:57;3.38;;;1.55;;
73487;SDS011;61721;42.206;25.320;2023-05-07T13:23:36;2.97;;;1.10;;
73487;SDS011;61721;42.206;25.320;2023-05-07T13:26:12;3.70;;;1.05;;
73487;SDS011;61721;42.206;25.320;2023-05-07T13:28:49;2.20;;;1.02;;
73487;SDS011;61721;42.206;25.320;2023-05-07T13:31:25;4.00;;;1.65;;
73487;SDS011;61721;42.206;25.320;2023-05-07T13:34:04;3.17;;;1.30;;
73487;SDS011;61721;42.206;25.320;2023-05-07T13:36:40;3.80;;;1.42;;
73487;SDS011;61721;42.206;25.320;2023-05-07T13:39:17;4.60;;;1.40;;
73487;SDS011;61721;42.206;25.320;2023-05-07T13:44:29;6.97;;;1.55;;
73487;SDS011;61721;42.206;25.320;2023-05-07T13:47:05;6.22;;;1.40;;
73487;SDS011;61721;42.206;25.320;2023-05-07T13:49:44;4.32;;;1.23;;
73487;SDS011;61721;42.206;25.320;2023-05-07T13:52:21;3.20;;;1.30;;
73487;SDS011;61721;42.206;25.320;2023-05-07T13:55:02;3.75;;;1.35;;
73487;SDS011;61721;42.206;25.320;2023-05-07T13:57:38;2.70;;;1.20;;
73487;SDS011;61721;42.206;25.320;2023-05-07T14:00:15;6.32;;;1.48;;
73487;SDS011;61721;42.206;25.320;2023-05-07T14:02:52;3.97;;;1.33;;
73487;SDS011;61721;42.206;25.320;2023-05-07T14:05:43;3.63;;;1.40;;
73487;SDS011;61721;42.206;25.320;2023-05-07T14:08:20;3.78;;;1.30;;
73487;SDS011;61721;42.206;25.320;2023-05-07T14:10:56;5.53;;;1.67;;
73487;SDS011;61721;42.206;25.320;2023-05-07T14:16:34;3.88;;;1.52;;
73487;SDS011;61721;42.206;25.320;2023-05-07T14:19:10;3.58;;;1.42;;
73487;SDS011;61721;42.206;25.320;2023-05-07T14:21:48;3.95;;;1.25;;
73487;SDS011;61721;42.206;25.320;2023-05-07T14:24:25;3.25;;;1.33;;
73487;SDS011;61721;42.206;25.320;2023-05-07T14:27:01;4.18;;;1.42;;
73487;SDS011;61721;42.206;25.320;2023-05-07T14:29:44;3.22;;;1.08;;
73487;SDS011;61721;42.206;25.320;2023-05-07T14:32:23;4.10;;;1.20;;
73487;SDS011;61721;42.206;25.320;2023-05-07T14:37:37;2.95;;;1.30;;
73487;SDS011;61721;42.206;25.320;2023-05-07T14:40:14;3.05;;;1.15;;
73487;SDS011;61721;42.206;25.320;2023-05-07T14:42:50;5.82;;;1.30;;
73487;SDS011;61721;42.206;25.320;2023-05-07T14:45:26;4.10;;;1.33;;
73487;SDS011;61721;42.206;25.320;2023-05-07T14:48:02;4.60;;;1.23;;
73487;SDS011;61721;42.206;25.320;2023-05-07T14:50:39;3.35;;;1.30;;
73487;SDS011;61721;42.206;25.320;2023-05-07T14:53:17;3.78;;;1.30;;
73487;SDS011;61721;42.206;25.320;2023-05-07T14:55:56;2.70;;;1.10;;
73487;SDS011;61721;42.206;25.320;2023-05-07T14:58:32;3.38;;;1.65;;
73487;SDS011;61721;42.206;25.320;2023-05-07T15:01:09;5.15;;;1.40;;
73487;SDS011;61721;42.206;25.320;2023-05-07T15:03:46;10.02;;;1.33;;
73487;SDS011;61721;42.206;25.320;2023-05-07T15:06:29;4.60;;;1.60;;
73487;SDS011;61721;42.206;25.320;2023-05-07T15:09:07;4.18;;;1.23;;
73487;SDS011;61721;42.206;25.320;2023-05-07T15:11:45;13.10;;;1.55;;
73487;SDS011;61721;42.206;25.320;2023-05-07T15:14:21;4.00;;;1.50;;
73487;SDS011;61721;42.206;25.320;2023-05-07T15:19:33;2.83;;;1.17;;
73487;SDS011;61721;42.206;25.320;2023-05-07T15:22:09;3.42;;;1.33;;
73487;SDS011;61721;42.206;25.320;2023-05-07T15:24:47;3.95;;;1.33;;
73487;SDS011;61721;42.206;25.320;2023-05-07T15:27:24;3.90;;;1.30;;
73487;SDS011;61721;42.206;25.320;2023-05-07T15:30:00;3.53;;;1.40;;
73487;SDS011;61721;42.206;25.320;2023-05-07T15:35:16;6.47;;;1.52;;
73487;SDS011;61721;42.206;25.320;2023-05-07T15:37:55;3.17;;;1.27;;
73487;SDS011;61721;42.206;25.320;2023-05-07T15:40:34;2.83;;;1.13;;
73487;SDS011;61721;42.206;25.320;2023-05-07T15:43:14;3.85;;;1.33;;
73487;SDS011;61721;42.206;25.320;2023-05-07T15:45:50;3.03;;;1.50;;
73487;SDS011;61721;42.206;25.320;2023-05-07T15:48:26;3.63;;;1.25;;
73487;SDS011;61721;42.206;25.320;2023-05-07T15:51:03;3.25;;;1.38;;
73487;SDS011;61721;42.206;25.320;2023-05-07T15:53:41;4.25;;;1.67;;
73487;SDS011;61721;42.206;25.320;2023-05-07T15:56:20;3.85;;;1.67;;
73487;SDS011;61721;42.206;25.320;2023-05-07T15:58:57;3.45;;;1.35;;
73487;SDS011;61721;42.206;25.320;2023-05-07T16:01:33;3.60;;;1.40;;
73487;SDS011;61721;42.206;25.320;2023-05-07T16:09:28;3.72;;;1.55;;
73487;SDS011;61721;42.206;25.320;2023-05-07T16:12:07;4.47;;;1.30;;
73487;SDS011;61721;42.206;25.320;2023-05-07T16:14:43;3.70;;;1.35;;
73487;SDS011;61721;42.206;25.320;2023-05-07T16:17:19;3.15;;;1.50;;
73487;SDS011;61721;42.206;25.320;2023-05-07T16:19:56;4.07;;;1.25;;
73487;SDS011;61721;42.206;25.320;2023-05-07T16:22:35;5.93;;;1.25;;
73487;SDS011;61721;42.206;25.320;2023-05-07T16:25:11;3.00;;;1.30;;
73487;SDS011;61721;42.206;25.320;2023-05-07T16:27:51;5.97;;;1.50;;
73487;SDS011;61721;42.206;25.320;2023-05-07T16:30:27;5.10;;;1.70;;
73487;SDS011;61721;42.206;25.320;2023-05-07T16:33:03;4.13;;;1.40;;
73487;SDS011;61721;42.206;25.320;2023-05-07T16:38:18;2.88;;;1.17;;
73487;SDS011;61721;42.206;25.320;2023-05-07T16:40:54;4.60;;;1.50;;
73487;SDS011;61721;42.206;25.320;2023-05-07T16:43:32;4.30;;;1.75;;
73487;SDS011;61721;42.206;25.320;2023-05-07T16:46:08;4.45;;;1.40;;
73487;SDS011;61721;42.206;25.320;2023-05-07T16:48:44;7.10;;;1.80;;
73487;SDS011;61721;42.206;25.320;2023-05-07T16:53:56;6.10;;;1.73;;
73487;SDS011;61721;42.206;25.320;2023-05-07T16:59:12;5.40;;;1.75;;
73487;SDS011;61721;42.206;25.320;2023-05-07T17:01:48;5.53;;;1.80;;
73487;SDS011;61721;42.206;25.320;2023-05-07T17:04:25;5.28;;;1.55;;
73487;SDS011;61721;42.206;25.320;2023-05-07T17:07:08;6.88;;;1.55;;
73487;SDS011;61721;42.206;25.320;2023-05-07T17:09:44;3.33;;;1.30;;
73487;SDS011;61721;42.206;25.320;2023-05-07T17:12:20;3.67;;;1.40;;
73487;SDS011;61721;42.206;25.320;2023-05-07T17:17:34;3.65;;;1.35;;
73487;SDS011;61721;42.206;25.320;2023-05-07T17:20:10;5.75;;;1.50;;
73487;SDS011;61721;42.206;25.320;2023-05-07T17:22:48;5.30;;;1.40;;
73487;SDS011;61721;42.206;25.320;2023-05-07T17:27:59;4.15;;;1.30;;
73487;SDS011;61721;42.206;25.320;2023-05-07T17:30:38;5.05;;;1.45;;
73487;SDS011;61721;42.206;25.320;2023-05-07T17:33:15;4.30;;;1.45;;
73487;SDS011;61721;42.206;25.320;2023-05-07T17:35:51;3.42;;;1.25;;
73487;SDS011;61721;42.206;25.320;2023-05-07T17:38:28;4.30;;;1.40;;